Station: Parkes Airport  

  Atmospheric Gas Attenuation - ITU Rec 676-11   ----------------- dB/100km -----------------
Date Time Temp RH % AH g/m3 Dew Point Wind Direction Speed kph Gust kph Barometer mB Rainfall Since 9am 24GHz 47GHz 76GHz 122GHz 134GHz 241GHz
08/05 12:30 11.8 72 7.58 6.9 20 28 1023.7 0 17.5 25.2 37.1 97.2 88.2 302.3
08/05 12:20 11.6 72 7.48 6.7 19 24 1023.9 0 17.3 25.1 36.8 96.4 87.1 298.5
08/05 12:10 11.5 72 7.44 6.6 17 20 1024.1 0 17.2 25.1 36.7 96.1 86.7 297.1
08/05 12:00 11.2 73 7.4 6.5 19 28 1024.5 0 17.1 25.1 36.7 96.1 86.5 296.4
08/05 11:50 10.8 76 7.51 6.7 15 17 1024.4 0 17.4 25.4 37.4 97.7 88.4 303.0
08/05 11:40 10.2 78 7.42 6.5 22 26 1024.6 0 17.2 25.4 37.3 97.5 87.9 301.2
08/05 11:30 10.4 76 7.33 6.4 15 22 1024.8 0 17.0 25.2 36.8 96.3 86.5 296.3
08/05 11:20 10.5 76 7.37 6.5 15 17 1024.8 0 17.1 25.3 36.9 96.6 86.9 297.8
08/05 11:10 10.3 78 7.47 6.6 9 11 1024.9 0 17.3 25.5 37.4 98.0 88.5 303.2
08/05 11:00 9.6 76 6.96 5.6 13 17 1025.1 0 16.3 24.9 35.7 93.3 82.5 282.1
08/05 10:50 9.3 77 6.92 5.5 17 20 1025.1 0 16.2 24.9 35.7 93.3 82.3 281.3
08/05 10:40 9.2 76 6.79 5.2 15 17 1025.2 0 15.9 24.7 35.2 92.0 80.7 275.6
08/05 10:30 9 75 6.61 4.8 13 17 1025.4 0 15.5 24.5 34.6 90.3 78.5 268.0
08/05 10:20 8.7 77 6.66 4.9 13 15 1025.4 0 15.7 24.7 34.9 91.2 79.5 271.3
08/05 10:10 8.5 77 6.58 4.7 17 19 1025.4 0 15.5 24.6 34.7 90.6 78.6 268.3
08/05 10:00 8.5 77 6.58 4.7 9 13 1025.5 0 15.5 24.6 34.7 90.6 78.6 268.3
08/05 09:50 8.2 79 6.62 4.8 6 7 1025.4 0 15.6 24.7 35.0 91.3 79.5 271.2
08/05 09:40 7.8 78 6.37 4.2 9 11 1025.4 0 15.1 24.4 34.1 89.1 76.5 260.9
08/05 09:30 7.6 77 6.21 3.8 9 13 1025.5 0 14.7 24.2 33.6 87.6 74.6 254.1
08/05 09:20 7.5 78 6.25 3.9 9 11 1025.4 0 14.8 24.3 33.8 88.1 75.2 256.3
08/05 09:10 7.5 79 6.33 4.1 11 11 1025.4 0 15.0 24.4 34.1 89.0 76.3 260.0
08/05 09:00 7 78 6.05 3.4 7 9 1025.4 0 14.4 24.1 33.2 86.6 73.1 248.6
08/05 08:50 6.7 80 6.08 3.5 7 9 1025.3 0 14.5 24.3 33.4 87.2 73.7 250.9
08/05 08:40 6.5 83 6.23 3.8 0 0 1025.3 0 14.8 24.6 34.1 89.0 75.9 258.6
08/05 08:30 6.2 83 6.11 3.5 0 0 1025.2 0 14.6 24.4 33.8 88.1 74.6 253.9
08/05 08:20 5.7 86 6.12 3.5 0 0 1025 0 14.6 24.6 34.0 88.7 75.2 256.0
08/05 08:10 5.1 88 6.02 3.3 0 0 1025 0 14.4 24.6 33.9 88.3 74.4 253.2
08/05 08:00 4.8 91 6.11 3.5 2 6 1025 0 14.6 24.8 34.4 89.6 75.9 258.4
08/05 07:50 4.5 92 6.05 3.3 6 6 1024.8 0 14.5 24.8 34.2 89.3 75.4 256.5
08/05 07:40 4.2 92 5.93 3 7 7 1024.6 0 14.3 24.7 33.9 88.3 74.0 251.7
08/05 07:30 4 93 5.92 3 9 11 1024.7 0 14.3 24.7 33.9 88.4 74.1 251.9
08/05 07:20 3.5 95 5.85 2.8 9 9 1024.6 0 14.1 24.7 33.8 88.2 73.6 250.1
08/05 07:10 3 96 5.71 2.4 9 9 1024.4 0 13.8 24.6 33.4 87.2 72.1 244.9
08/05 07:00 2.1 96 5.38 1.5 9 11 1024.4 0 13.2 24.3 32.4 84.5 68.4 231.7
08/05 06:50 1.9 96 5.3 1.3 7 9 1024.2 0 13.0 24.2 32.2 83.8 67.5 228.4
08/05 06:40 1.7 95 5.18 1 6 6 1024.1 0 12.7 24.1 31.8 82.7 66.0 223.1
08/05 06:30 1.7 95 5.18 1 0 0 1024.3 0 12.7 24.1 31.8 82.7 66.0 223.2
08/05 06:20 1.7 95 5.18 1 0 0 1024 0 12.7 24.1 31.8 82.7 66.0 223.1
08/05 06:10 2 95 5.28 1.3 0 0 1024 0 12.9 24.2 32.0 83.5 67.1 227.1
08/05 06:00 2.4 95 5.43 1.7 0 0 1024.2 0 13.3 24.3 32.5 84.7 68.8 233.1
08/05 05:50 2.5 96 5.52 1.9 0 0 1024 0 13.4 24.4 32.8 85.6 70.0 237.1
08/05 05:40 2.3 95 5.39 1.6 0 0 1024 0 13.2 24.3 32.4 84.4 68.4 231.5
08/05 05:30 2.1 94 5.26 1.2 2 7 1024.2 0 12.9 24.1 31.9 83.1 66.8 225.9
08/05 05:20 2.4 91 5.2 1.1 7 9 1024 0 12.8 23.9 31.6 82.1 65.7 222.1
08/05 05:10 2.4 95 5.43 1.7 7 13 1024 0 13.3 24.3 32.5 84.7 68.8 233.1
08/05 05:00 1.1 94 4.92 0.2 7 9 1024.1 0 12.2 23.8 30.9 80.4 63.0 212.3
08/05 04:50 1.2 94 4.95 0.3 7 9 1023.8 0 12.3 23.8 31.0 80.6 63.3 213.5
08/05 04:40 1.3 94 4.99 0.4 9 9 1023.8 0 12.3 23.9 31.1 81.0 63.7 215.1
08/05 04:30 1.4 95 5.07 0.7 7 9 1023.9 0 12.5 24.0 31.4 81.8 64.8 218.7
08/05 04:20 1.1 94 4.92 0.2 7 7 1023.7 0 12.2 23.8 30.9 80.4 62.9 212.3
08/05 04:10 1.3 93 4.93 0.3 7 9 1023.6 0 12.2 23.7 30.9 80.3 62.9 212.2
08/05 04:00 1.5 93 5 0.5 9 9 1023.6 0 12.4 23.8 31.1 80.9 63.7 215.0
08/05 03:50 1.4 93 4.97 0.4 6 7 1023.6 0 12.3 23.8 31.0 80.6 63.4 213.8
08/05 03:40 1.3 91 4.83 0 7 7 1023.6 0 12.0 23.6 30.5 79.2 61.6 207.4
08/05 03:30 1.9 92 5.08 0.7 6 7 1023.7 0 12.5 23.8 31.2 81.3 64.5 217.7
08/05 03:20 1.9 92 5.08 0.7 6 7 1023.6 0 12.5 23.8 31.2 81.3 64.5 217.7
08/05 03:10 2 93 5.17 1 11 13 1023.7 0 12.7 24.0 31.6 82.2 65.6 221.7
08/05 03:00 1.7 92 5.01 0.5 6 9 1024.1 0 12.4 23.8 31.1 80.8 63.7 215.0
08/05 02:50 2.2 92 5.19 1 6 6 1023.9 0 12.7 23.9 31.6 82.2 65.7 222.2
08/05 02:40 2.1 91 5.1 0.8 6 7 1023.9 0 12.6 23.8 31.3 81.4 64.6 218.2
08/05 02:30 2.2 89 5.02 0.6 0 0 1024.1 0 12.4 23.7 30.9 80.4 63.4 214.1
08/05 02:20 2.7 87 5.07 0.8 0 0 1023.9 0 12.5 23.6 30.9 80.4 63.7 215.1
08/05 02:10 2.7 90 5.25 1.2 0 0 1024.1 0 12.9 23.9 31.6 82.4 66.1 223.6
08/05 02:00 2.4 89 5.09 0.8 0 0 1024.2 0 12.5 23.7 31.1 81.0 64.2 216.9
08/05 01:50 2.7 89 5.19 1.1 0 0 1024.1 0 12.7 23.8 31.4 81.7 65.3 220.8
08/05 01:40 3.4 83 5.07 0.8 6 6 1024.2 0 12.4 23.4 30.6 79.7 63.1 213.2
08/05 01:30 3.8 82 5.15 1 9 11 1024.4 0 12.6 23.5 30.8 80.2 63.9 215.9
08/05 01:20 3.7 81 5.05 0.7 7 9 1024.1 0 12.4 23.3 30.4 79.2 62.6 211.5
08/05 01:10 3.9 81 5.12 0.9 9 11 1024.2 0 12.5 23.4 30.7 79.7 63.4 214.2
08/05 01:00 4.1 80 5.12 1 9 11 1024.5 0 12.5 23.4 30.6 79.6 63.2 213.7
08/05 00:50 4 81 5.15 1 9 9 1024.3 0 12.6 23.4 30.7 80.0 63.7 215.4
08/05 00:40 3.6 82 5.08 0.8 9 11 1024.4 0 12.5 23.4 30.6 79.6 63.1 213.2
08/05 00:20 3.5 83 5.11 0.9 11 13 1024.6 0 12.5 23.5 30.8 80.1 63.6 214.9
08/05 00:10 3.7 82 5.11 0.9 13 13 1024.6 0 12.5 23.4 30.7 79.9 63.4 214.4
08/05 00:00 3.5 81 4.98 0.6 11 13 1024.7 0 12.2 23.3 30.3 78.7 61.9 208.9
07/05 23:50 4.2 81 5.22 1.2 11 11 1024.4 0 12.7 23.5 30.9 80.5 64.5 218.1
07/05 23:40 4.4 81 5.29 1.4 13 15 1024.6 0 12.9 23.6 31.2 81.1 65.2 220.8
07/05 23:30 4.3 81 5.26 1.3 13 15 1024.7 0 12.8 23.5 31.1 80.9 64.9 219.7
07/05 23:20 4.1 84 5.38 1.6 15 15 1024.6 0 13.1 23.8 31.6 82.4 66.7 225.9
07/05 23:10 3.3 84 5.1 0.9 13 15 1024.3 0 12.5 23.5 30.8 80.2 63.6 214.9
07/05 23:00 3.2 84 5.07 0.8 2 11 1024.6 0 12.5 23.5 30.7 80.0 63.3 213.9
07/05 22:50 3.5 80 4.92 0.4 0 0 1024.6 0 12.1 23.2 30.0 78.0 61.1 206.1
07/05 22:40 3.6 83 5.14 1 0 0 1024.6 0 12.6 23.5 30.9 80.3 63.9 216.0
07/05 22:30 3.3 83 5.04 0.7 6 9 1024.8 0 12.4 23.4 30.6 79.6 62.8 212.2
07/05 22:20 3.5 82 5.05 0.7 9 9 1024.6 0 12.4 23.4 30.5 79.4 62.8 212.1
07/05 22:10 3.7 81 5.05 0.7 13 13 1024.6 0 12.4 23.4 30.5 79.2 62.6 211.6
07/05 22:00 4.1 80 5.12 1 9 13 1024.8 0 12.5 23.4 30.6 79.6 63.3 213.8
07/05 21:50 4.1 79 5.06 0.8 7 7 1024.6 0 12.4 23.3 30.4 78.9 62.4 211.0
07/05 21:40 4.2 79 5.09 0.9 6 7 1024.6 0 12.5 23.3 30.4 79.2 62.8 212.1
07/05 21:30 4.5 79 5.2 1.2 13 15 1024.6 0 12.7 23.4 30.8 80.0 64.0 216.4
07/05 21:20 4.1 81 5.19 1.1 15 15 1024.2 0 12.7 23.5 30.9 80.3 64.1 216.9
07/05 21:10 4.7 80 5.33 1.6 15 15 1024.1 0 13.0 23.5 31.2 81.2 65.5 221.8
07/05 21:00 4 81 5.15 1 11 13 1024.4 0 12.6 23.4 30.7 80.0 63.7 215.4
07/05 20:50 4.4 78 5.1 0.9 11 11 1023.9 0 12.5 23.2 30.4 79.0 62.7 211.9
07/05 20:40 5.2 73 5.03 0.8 9 11 1024 0 12.3 22.9 29.8 77.5 61.2 206.6
07/05 20:30 5.6 74 5.23 1.3 9 11 1024.2 0 12.7 23.1 30.4 79.2 63.4 214.7
07/05 20:20 5.9 72 5.19 1.2 9 11 1023.9 0 12.6 23.0 30.2 78.5 62.7 212.0
07/05 20:10 6.5 71 5.33 1.6 17 19 1023.7 0 12.9 23.0 30.5 79.3 64.0 216.7
07/05 20:00 6.5 71 5.33 1.6 17 19 1023.8 0 12.9 23.0 30.5 79.3 64.0 216.7
07/05 19:50 6.2 71 5.22 1.3 15 17 1023.8 0 12.7 22.9 30.2 78.5 62.8 212.5

Last Refresh: 08-May-2026 12:10:11

Bureau of Meteorology